sensor_id;sensor_type;location;lat;lon;timestamp;P1;durP1;ratioP1;P2;durP2;ratioP2
12110;SDS011;6119;52.372;8.990;2023-02-25T00:02:04;14.10;;;2.27;;
12110;SDS011;6119;52.372;8.990;2023-02-25T00:04:51;8.90;;;2.20;;
12110;SDS011;6119;52.372;8.990;2023-02-25T00:07:37;11.33;;;2.60;;
12110;SDS011;6119;52.372;8.990;2023-02-25T00:10:24;9.20;;;2.10;;
12110;SDS011;6119;52.372;8.990;2023-02-25T00:13:12;9.03;;;1.80;;
12110;SDS011;6119;52.372;8.990;2023-02-25T00:16:02;10.27;;;2.07;;
12110;SDS011;6119;52.372;8.990;2023-02-25T00:18:52;7.43;;;1.93;;
12110;SDS011;6119;52.372;8.990;2023-02-25T00:21:39;10.80;;;2.17;;
12110;SDS011;6119;52.372;8.990;2023-02-25T00:24:25;9.37;;;2.23;;
12110;SDS011;6119;52.372;8.990;2023-02-25T00:27:12;13.30;;;2.57;;
12110;SDS011;6119;52.372;8.990;2023-02-25T00:29:59;16.70;;;2.23;;
12110;SDS011;6119;52.372;8.990;2023-02-25T00:32:46;9.43;;;2.43;;
12110;SDS011;6119;52.372;8.990;2023-02-25T00:35:33;12.03;;;2.23;;
12110;SDS011;6119;52.372;8.990;2023-02-25T00:38:19;9.77;;;2.10;;
12110;SDS011;6119;52.372;8.990;2023-02-25T00:41:07;8.37;;;2.50;;
12110;SDS011;6119;52.372;8.990;2023-02-25T00:43:57;18.30;;;2.70;;
12110;SDS011;6119;52.372;8.990;2023-02-25T00:46:46;15.10;;;2.10;;
12110;SDS011;6119;52.372;8.990;2023-02-25T00:49:33;15.53;;;2.47;;
12110;SDS011;6119;52.372;8.990;2023-02-25T00:52:20;13.63;;;2.30;;
12110;SDS011;6119;52.372;8.990;2023-02-25T00:55:07;10.90;;;2.73;;
12110;SDS011;6119;52.372;8.990;2023-02-25T00:57:55;10.33;;;2.13;;
12110;SDS011;6119;52.372;8.990;2023-02-25T01:00:41;11.43;;;2.50;;
12110;SDS011;6119;52.372;8.990;2023-02-25T01:03:37;5.87;;;1.67;;
12110;SDS011;6119;52.372;8.990;2023-02-25T01:06:24;7.90;;;1.67;;
12110;SDS011;6119;52.372;8.990;2023-02-25T01:09:12;9.43;;;2.10;;
12110;SDS011;6119;52.372;8.990;2023-02-25T01:11:59;12.57;;;2.60;;
12110;SDS011;6119;52.372;8.990;2023-02-25T01:14:45;8.83;;;2.10;;
12110;SDS011;6119;52.372;8.990;2023-02-25T01:17:31;9.57;;;1.83;;
12110;SDS011;6119;52.372;8.990;2023-02-25T01:20:19;6.50;;;1.90;;
12110;SDS011;6119;52.372;8.990;2023-02-25T01:23:07;10.37;;;2.73;;
12110;SDS011;6119;52.372;8.990;2023-02-25T01:25:53;5.77;;;1.60;;
12110;SDS011;6119;52.372;8.990;2023-02-25T01:28:40;10.90;;;2.00;;
12110;SDS011;6119;52.372;8.990;2023-02-25T01:31:27;6.77;;;1.73;;
12110;SDS011;6119;52.372;8.990;2023-02-25T01:34:14;10.10;;;2.17;;
12110;SDS011;6119;52.372;8.990;2023-02-25T01:37:03;9.43;;;1.60;;
12110;SDS011;6119;52.372;8.990;2023-02-25T01:39:50;11.53;;;1.87;;
12110;SDS011;6119;52.372;8.990;2023-02-25T01:42:36;9.40;;;1.83;;
12110;SDS011;6119;52.372;8.990;2023-02-25T01:45:26;6.13;;;1.80;;
12110;SDS011;6119;52.372;8.990;2023-02-25T01:48:15;5.07;;;1.77;;
12110;SDS011;6119;52.372;8.990;2023-02-25T01:51:05;11.33;;;2.27;;
12110;SDS011;6119;52.372;8.990;2023-02-25T01:53:55;12.20;;;1.40;;
12110;SDS011;6119;52.372;8.990;2023-02-25T01:56:47;8.70;;;1.90;;
12110;SDS011;6119;52.372;8.990;2023-02-25T01:59:38;6.43;;;1.70;;
12110;SDS011;6119;52.372;8.990;2023-02-25T02:02:26;5.60;;;1.70;;
12110;SDS011;6119;52.372;8.990;2023-02-25T02:05:17;7.53;;;1.23;;
12110;SDS011;6119;52.372;8.990;2023-02-25T02:08:04;8.73;;;1.47;;
12110;SDS011;6119;52.372;8.990;2023-02-25T02:10:53;3.67;;;1.40;;
12110;SDS011;6119;52.372;8.990;2023-02-25T02:13:41;8.27;;;1.77;;
12110;SDS011;6119;52.372;8.990;2023-02-25T02:16:35;5.17;;;1.47;;
12110;SDS011;6119;52.372;8.990;2023-02-25T02:26:30;6.43;;;1.83;;
12110;SDS011;6119;52.372;8.990;2023-02-25T02:29:54;6.13;;;1.70;;
12110;SDS011;6119;52.372;8.990;2023-02-25T02:33:00;8.73;;;1.60;;
12110;SDS011;6119;52.372;8.990;2023-02-25T02:35:55;9.20;;;1.87;;
12110;SDS011;6119;52.372;8.990;2023-02-25T02:38:47;9.57;;;1.80;;
12110;SDS011;6119;52.372;8.990;2023-02-25T02:41:38;7.97;;;1.60;;
12110;SDS011;6119;52.372;8.990;2023-02-25T02:44:32;6.20;;;1.70;;
12110;SDS011;6119;52.372;8.990;2023-02-25T02:47:27;6.37;;;1.40;;
12110;SDS011;6119;52.372;8.990;2023-02-25T02:50:19;6.53;;;1.67;;
12110;SDS011;6119;52.372;8.990;2023-02-25T02:53:12;5.33;;;1.53;;
12110;SDS011;6119;52.372;8.990;2023-02-25T02:56:03;9.10;;;1.87;;
12110;SDS011;6119;52.372;8.990;2023-02-25T02:58:54;4.17;;;1.60;;
12110;SDS011;6119;52.372;8.990;2023-02-25T03:01:44;3.40;;;1.37;;
12110;SDS011;6119;52.372;8.990;2023-02-25T03:04:36;3.57;;;1.43;;
12110;SDS011;6119;52.372;8.990;2023-02-25T03:07:26;7.93;;;1.40;;
12110;SDS011;6119;52.372;8.990;2023-02-25T03:10:15;4.67;;;1.20;;
12110;SDS011;6119;52.372;8.990;2023-02-25T03:13:06;10.00;;;2.43;;
12110;SDS011;6119;52.372;8.990;2023-02-25T03:15:53;5.23;;;1.33;;
12110;SDS011;6119;52.372;8.990;2023-02-25T03:18:41;12.30;;;1.77;;
12110;SDS011;6119;52.372;8.990;2023-02-25T03:21:34;4.80;;;1.50;;
12110;SDS011;6119;52.372;8.990;2023-02-25T03:24:26;8.40;;;1.50;;
12110;SDS011;6119;52.372;8.990;2023-02-25T03:27:21;6.27;;;1.67;;
12110;SDS011;6119;52.372;8.990;2023-02-25T03:30:13;6.00;;;1.20;;
12110;SDS011;6119;52.372;8.990;2023-02-25T03:33:07;14.00;;;1.73;;
12110;SDS011;6119;52.372;8.990;2023-02-25T03:35:59;3.53;;;1.27;;
12110;SDS011;6119;52.372;8.990;2023-02-25T03:38:51;7.73;;;1.77;;
12110;SDS011;6119;52.372;8.990;2023-02-25T03:41:43;7.83;;;1.73;;
12110;SDS011;6119;52.372;8.990;2023-02-25T03:44:34;7.73;;;1.77;;
12110;SDS011;6119;52.372;8.990;2023-02-25T03:47:23;8.40;;;1.13;;
12110;SDS011;6119;52.372;8.990;2023-02-25T03:50:13;3.13;;;1.00;;
12110;SDS011;6119;52.372;8.990;2023-02-25T03:53:04;8.90;;;1.37;;
12110;SDS011;6119;52.372;8.990;2023-02-25T03:55:50;5.80;;;1.47;;
12110;SDS011;6119;52.372;8.990;2023-02-25T03:58:39;4.13;;;1.13;;
12110;SDS011;6119;52.372;8.990;2023-02-25T04:01:27;6.77;;;1.27;;
12110;SDS011;6119;52.372;8.990;2023-02-25T04:04:15;3.90;;;1.20;;
12110;SDS011;6119;52.372;8.990;2023-02-25T04:07:02;2.83;;;1.17;;
12110;SDS011;6119;52.372;8.990;2023-02-25T04:09:49;6.60;;;1.30;;
12110;SDS011;6119;52.372;8.990;2023-02-25T04:12:35;2.67;;;1.37;;
12110;SDS011;6119;52.372;8.990;2023-02-25T04:15:23;5.57;;;1.40;;
12110;SDS011;6119;52.372;8.990;2023-02-25T04:18:13;4.93;;;1.37;;
12110;SDS011;6119;52.372;8.990;2023-02-25T04:21:00;5.37;;;1.57;;
12110;SDS011;6119;52.372;8.990;2023-02-25T04:23:46;4.47;;;1.40;;
12110;SDS011;6119;52.372;8.990;2023-02-25T04:26:32;6.00;;;1.57;;
12110;SDS011;6119;52.372;8.990;2023-02-25T04:29:19;1.90;;;1.03;;
12110;SDS011;6119;52.372;8.990;2023-02-25T04:32:07;3.27;;;1.30;;
12110;SDS011;6119;52.372;8.990;2023-02-25T04:34:54;3.17;;;1.60;;
12110;SDS011;6119;52.372;8.990;2023-02-25T04:37:47;5.67;;;1.30;;
12110;SDS011;6119;52.372;8.990;2023-02-25T04:40:33;6.50;;;1.33;;
12110;SDS011;6119;52.372;8.990;2023-02-25T04:43:20;6.37;;;1.37;;
12110;SDS011;6119;52.372;8.990;2023-02-25T04:46:06;3.57;;;1.20;;
12110;SDS011;6119;52.372;8.990;2023-02-25T04:48:54;2.20;;;0.87;;
12110;SDS011;6119;52.372;8.990;2023-02-25T04:51:41;1.40;;;0.93;;
12110;SDS011;6119;52.372;8.990;2023-02-25T04:54:27;7.40;;;1.53;;
12110;SDS011;6119;52.372;8.990;2023-02-25T04:57:14;3.27;;;1.43;;
12110;SDS011;6119;52.372;8.990;2023-02-25T05:00:00;9.93;;;1.73;;
12110;SDS011;6119;52.372;8.990;2023-02-25T05:02:54;2.03;;;1.27;;
12110;SDS011;6119;52.372;8.990;2023-02-25T05:05:43;2.73;;;1.00;;
12110;SDS011;6119;52.372;8.990;2023-02-25T05:08:30;2.90;;;1.10;;
12110;SDS011;6119;52.372;8.990;2023-02-25T05:11:17;4.10;;;1.10;;
12110;SDS011;6119;52.372;8.990;2023-02-25T05:14:04;4.67;;;1.27;;
12110;SDS011;6119;52.372;8.990;2023-02-25T05:16:50;2.10;;;1.00;;
12110;SDS011;6119;52.372;8.990;2023-02-25T05:19:37;4.43;;;1.10;;
12110;SDS011;6119;52.372;8.990;2023-02-25T05:22:25;1.90;;;0.93;;
12110;SDS011;6119;52.372;8.990;2023-02-25T05:25:12;3.60;;;1.20;;
12110;SDS011;6119;52.372;8.990;2023-02-25T05:27:59;2.00;;;1.20;;
12110;SDS011;6119;52.372;8.990;2023-02-25T05:30:46;3.30;;;1.70;;
12110;SDS011;6119;52.372;8.990;2023-02-25T05:33:32;5.93;;;1.63;;
12110;SDS011;6119;52.372;8.990;2023-02-25T05:36:20;2.97;;;1.20;;
12110;SDS011;6119;52.372;8.990;2023-02-25T05:39:13;3.97;;;1.40;;
12110;SDS011;6119;52.372;8.990;2023-02-25T05:42:00;1.43;;;1.20;;
12110;SDS011;6119;52.372;8.990;2023-02-25T05:44:46;1.90;;;1.17;;
12110;SDS011;6119;52.372;8.990;2023-02-25T05:47:33;1.93;;;0.90;;
12110;SDS011;6119;52.372;8.990;2023-02-25T05:50:19;2.37;;;0.90;;
12110;SDS011;6119;52.372;8.990;2023-02-25T05:53:06;2.53;;;1.20;;
12110;SDS011;6119;52.372;8.990;2023-02-25T05:55:55;4.50;;;1.20;;
12110;SDS011;6119;52.372;8.990;2023-02-25T05:58:42;5.97;;;1.60;;
12110;SDS011;6119;52.372;8.990;2023-02-25T06:01:30;5.53;;;1.10;;
12110;SDS011;6119;52.372;8.990;2023-02-25T06:04:17;3.40;;;1.20;;
12110;SDS011;6119;52.372;8.990;2023-02-25T06:07:03;2.23;;;1.40;;
12110;SDS011;6119;52.372;8.990;2023-02-25T06:09:51;1.57;;;1.10;;
12110;SDS011;6119;52.372;8.990;2023-02-25T06:12:40;1.80;;;0.87;;
12110;SDS011;6119;52.372;8.990;2023-02-25T06:15:29;4.63;;;1.23;;
12110;SDS011;6119;52.372;8.990;2023-02-25T06:18:15;3.00;;;0.90;;
12110;SDS011;6119;52.372;8.990;2023-02-25T06:21:03;1.80;;;1.10;;
12110;SDS011;6119;52.372;8.990;2023-02-25T06:23:51;5.57;;;1.27;;
12110;SDS011;6119;52.372;8.990;2023-02-25T06:26:38;3.50;;;0.90;;
12110;SDS011;6119;52.372;8.990;2023-02-25T06:29:27;2.33;;;1.00;;
12110;SDS011;6119;52.372;8.990;2023-02-25T06:32:14;6.87;;;1.50;;
12110;SDS011;6119;52.372;8.990;2023-02-25T06:35:01;3.67;;;1.20;;
12110;SDS011;6119;52.372;8.990;2023-02-25T06:37:47;4.80;;;1.07;;
12110;SDS011;6119;52.372;8.990;2023-02-25T06:40:34;3.20;;;1.27;;
12110;SDS011;6119;52.372;8.990;2023-02-25T06:43:22;3.20;;;1.00;;
12110;SDS011;6119;52.372;8.990;2023-02-25T06:46:11;4.60;;;1.10;;
12110;SDS011;6119;52.372;8.990;2023-02-25T06:48:59;6.17;;;1.40;;
12110;SDS011;6119;52.372;8.990;2023-02-25T06:51:46;0.83;;;0.73;;
12110;SDS011;6119;52.372;8.990;2023-02-25T06:54:33;3.87;;;0.97;;
12110;SDS011;6119;52.372;8.990;2023-02-25T06:57:20;3.20;;;0.93;;
12110;SDS011;6119;52.372;8.990;2023-02-25T07:00:08;6.90;;;2.07;;
12110;SDS011;6119;52.372;8.990;2023-02-25T07:02:57;6.90;;;1.43;;
12110;SDS011;6119;52.372;8.990;2023-02-25T07:05:45;2.40;;;0.70;;
12110;SDS011;6119;52.372;8.990;2023-02-25T07:08:32;3.87;;;0.93;;
12110;SDS011;6119;52.372;8.990;2023-02-25T07:11:26;5.90;;;1.10;;
12110;SDS011;6119;52.372;8.990;2023-02-25T07:14:14;6.53;;;0.90;;
12110;SDS011;6119;52.372;8.990;2023-02-25T07:17:01;2.93;;;0.90;;
12110;SDS011;6119;52.372;8.990;2023-02-25T07:19:49;5.00;;;1.17;;
12110;SDS011;6119;52.372;8.990;2023-02-25T07:22:35;2.23;;;0.80;;
12110;SDS011;6119;52.372;8.990;2023-02-25T07:25:22;3.03;;;0.90;;
12110;SDS011;6119;52.372;8.990;2023-02-25T07:28:09;4.13;;;1.23;;
12110;SDS011;6119;52.372;8.990;2023-02-25T07:30:58;4.63;;;1.40;;
12110;SDS011;6119;52.372;8.990;2023-02-25T07:33:45;1.40;;;1.03;;
12110;SDS011;6119;52.372;8.990;2023-02-25T07:36:33;4.30;;;1.40;;
12110;SDS011;6119;52.372;8.990;2023-02-25T07:39:22;4.17;;;1.20;;
12110;SDS011;6119;52.372;8.990;2023-02-25T07:42:08;2.80;;;0.83;;
12110;SDS011;6119;52.372;8.990;2023-02-25T07:44:55;4.20;;;0.93;;
12110;SDS011;6119;52.372;8.990;2023-02-25T07:47:43;4.53;;;1.30;;
12110;SDS011;6119;52.372;8.990;2023-02-25T07:50:29;5.67;;;1.10;;
12110;SDS011;6119;52.372;8.990;2023-02-25T07:53:17;3.27;;;0.90;;
12110;SDS011;6119;52.372;8.990;2023-02-25T07:56:06;3.40;;;1.07;;
12110;SDS011;6119;52.372;8.990;2023-02-25T07:58:54;2.70;;;1.10;;
12110;SDS011;6119;52.372;8.990;2023-02-25T08:01:40;3.23;;;0.90;;
12110;SDS011;6119;52.372;8.990;2023-02-25T08:04:28;5.73;;;0.70;;
12110;SDS011;6119;52.372;8.990;2023-02-25T08:07:15;2.23;;;0.60;;
12110;SDS011;6119;52.372;8.990;2023-02-25T08:10:03;4.30;;;0.87;;
12110;SDS011;6119;52.372;8.990;2023-02-25T08:12:50;2.43;;;0.77;;
12110;SDS011;6119;52.372;8.990;2023-02-25T08:15:38;2.17;;;0.87;;
12110;SDS011;6119;52.372;8.990;2023-02-25T08:18:26;4.63;;;0.77;;
12110;SDS011;6119;52.372;8.990;2023-02-25T08:21:13;1.13;;;0.60;;
12110;SDS011;6119;52.372;8.990;2023-02-25T08:24:02;2.23;;;0.60;;
12110;SDS011;6119;52.372;8.990;2023-02-25T08:26:50;4.50;;;0.77;;
12110;SDS011;6119;52.372;8.990;2023-02-25T08:29:38;1.93;;;0.70;;
12110;SDS011;6119;52.372;8.990;2023-02-25T08:32:24;5.00;;;0.60;;
12110;SDS011;6119;52.372;8.990;2023-02-25T08:35:11;2.53;;;1.00;;
12110;SDS011;6119;52.372;8.990;2023-02-25T08:37:58;3.40;;;0.77;;
12110;SDS011;6119;52.372;8.990;2023-02-25T08:40:45;4.77;;;1.30;;
12110;SDS011;6119;52.372;8.990;2023-02-25T08:43:33;2.67;;;0.70;;
12110;SDS011;6119;52.372;8.990;2023-02-25T08:46:20;5.13;;;2.13;;
12110;SDS011;6119;52.372;8.990;2023-02-25T08:49:08;6.43;;;2.97;;
12110;SDS011;6119;52.372;8.990;2023-02-25T08:51:55;6.83;;;3.70;;
12110;SDS011;6119;52.372;8.990;2023-02-25T08:54:42;7.10;;;1.87;;
12110;SDS011;6119;52.372;8.990;2023-02-25T08:57:29;2.07;;;1.07;;
12110;SDS011;6119;52.372;8.990;2023-02-25T09:00:18;1.23;;;0.83;;
12110;SDS011;6119;52.372;8.990;2023-02-25T09:03:06;2.23;;;1.13;;
12110;SDS011;6119;52.372;8.990;2023-02-25T09:05:52;1.60;;;1.10;;
12110;SDS011;6119;52.372;8.990;2023-02-25T09:08:40;1.40;;;0.70;;
12110;SDS011;6119;52.372;8.990;2023-02-25T09:11:26;0.80;;;0.80;;
12110;SDS011;6119;52.372;8.990;2023-02-25T09:14:13;3.70;;;1.40;;
12110;SDS011;6119;52.372;8.990;2023-02-25T09:17:02;2.00;;;1.23;;
12110;SDS011;6119;52.372;8.990;2023-02-25T09:19:49;3.17;;;0.80;;
12110;SDS011;6119;52.372;8.990;2023-02-25T09:22:36;6.50;;;1.03;;
12110;SDS011;6119;52.372;8.990;2023-02-25T09:25:23;4.60;;;1.10;;
12110;SDS011;6119;52.372;8.990;2023-02-25T09:28:10;2.23;;;0.87;;
12110;SDS011;6119;52.372;8.990;2023-02-25T09:30:56;1.83;;;1.00;;
12110;SDS011;6119;52.372;8.990;2023-02-25T09:33:45;2.13;;;0.93;;
12110;SDS011;6119;52.372;8.990;2023-02-25T09:36:31;4.57;;;1.07;;
12110;SDS011;6119;52.372;8.990;2023-02-25T09:39:18;3.57;;;0.77;;
12110;SDS011;6119;52.372;8.990;2023-02-25T09:42:05;3.90;;;1.00;;
12110;SDS011;6119;52.372;8.990;2023-02-25T09:44:55;0.73;;;0.70;;
12110;SDS011;6119;52.372;8.990;2023-02-25T09:47:46;2.73;;;1.00;;
12110;SDS011;6119;52.372;8.990;2023-02-25T09:50:39;5.87;;;0.97;;
12110;SDS011;6119;52.372;8.990;2023-02-25T09:53:32;2.13;;;0.97;;
12110;SDS011;6119;52.372;8.990;2023-02-25T09:56:23;1.20;;;0.60;;
12110;SDS011;6119;52.372;8.990;2023-02-25T09:59:13;1.23;;;0.70;;
12110;SDS011;6119;52.372;8.990;2023-02-25T10:02:02;3.53;;;0.70;;
12110;SDS011;6119;52.372;8.990;2023-02-25T10:05:02;3.00;;;0.87;;
12110;SDS011;6119;52.372;8.990;2023-02-25T10:08:07;2.63;;;0.77;;
12110;SDS011;6119;52.372;8.990;2023-02-25T10:11:04;1.03;;;0.50;;
12110;SDS011;6119;52.372;8.990;2023-02-25T10:13:55;4.37;;;0.93;;
12110;SDS011;6119;52.372;8.990;2023-02-25T10:16:51;0.83;;;0.50;;
12110;SDS011;6119;52.372;8.990;2023-02-25T10:19:50;2.73;;;0.40;;
12110;SDS011;6119;52.372;8.990;2023-02-25T10:22:55;1.07;;;0.50;;
12110;SDS011;6119;52.372;8.990;2023-02-25T10:25:51;2.00;;;0.90;;
12110;SDS011;6119;52.372;8.990;2023-02-25T10:28:42;0.80;;;0.70;;
12110;SDS011;6119;52.372;8.990;2023-02-25T10:31:30;0.73;;;0.50;;
12110;SDS011;6119;52.372;8.990;2023-02-25T10:34:19;0.57;;;0.57;;
12110;SDS011;6119;52.372;8.990;2023-02-25T10:37:10;0.50;;;0.50;;
12110;SDS011;6119;52.372;8.990;2023-02-25T10:40:02;1.67;;;0.67;;
12110;SDS011;6119;52.372;8.990;2023-02-25T10:42:57;1.00;;;0.53;;
12110;SDS011;6119;52.372;8.990;2023-02-25T10:45:46;3.03;;;0.77;;
12110;SDS011;6119;52.372;8.990;2023-02-25T10:48:37;1.27;;;0.50;;
12110;SDS011;6119;52.372;8.990;2023-02-25T10:51:26;1.17;;;0.60;;
12110;SDS011;6119;52.372;8.990;2023-02-25T10:54:13;1.43;;;0.60;;
12110;SDS011;6119;52.372;8.990;2023-02-25T10:57:00;1.63;;;0.87;;
12110;SDS011;6119;52.372;8.990;2023-02-25T10:59:59;4.13;;;1.60;;
12110;SDS011;6119;52.372;8.990;2023-02-25T11:02:49;1.30;;;0.70;;
12110;SDS011;6119;52.372;8.990;2023-02-25T11:05:37;1.20;;;0.57;;
12110;SDS011;6119;52.372;8.990;2023-02-25T11:08:27;2.53;;;0.47;;
12110;SDS011;6119;52.372;8.990;2023-02-25T11:11:17;4.07;;;0.40;;
12110;SDS011;6119;52.372;8.990;2023-02-25T11:14:13;0.63;;;0.50;;
12110;SDS011;6119;52.372;8.990;2023-02-25T11:17:03;0.73;;;0.53;;
12110;SDS011;6119;52.372;8.990;2023-02-25T11:19:54;1.37;;;0.63;;
12110;SDS011;6119;52.372;8.990;2023-02-25T11:22:44;0.53;;;0.47;;
12110;SDS011;6119;52.372;8.990;2023-02-25T11:25:34;1.80;;;0.40;;
12110;SDS011;6119;52.372;8.990;2023-02-25T11:28:25;2.30;;;0.50;;
12110;SDS011;6119;52.372;8.990;2023-02-25T11:31:16;5.00;;;0.60;;
12110;SDS011;6119;52.372;8.990;2023-02-25T11:34:12;1.23;;;0.40;;
12110;SDS011;6119;52.372;8.990;2023-02-25T11:37:24;2.73;;;0.60;;
12110;SDS011;6119;52.372;8.990;2023-02-25T11:40:22;2.33;;;0.50;;
12110;SDS011;6119;52.372;8.990;2023-02-25T11:43:16;0.37;;;0.30;;
12110;SDS011;6119;52.372;8.990;2023-02-25T11:46:05;3.27;;;0.87;;
12110;SDS011;6119;52.372;8.990;2023-02-25T11:48:57;1.40;;;0.40;;
12110;SDS011;6119;52.372;8.990;2023-02-25T11:51:54;0.73;;;0.60;;
12110;SDS011;6119;52.372;8.990;2023-02-25T11:54:51;1.23;;;0.50;;
12110;SDS011;6119;52.372;8.990;2023-02-25T11:57:47;2.10;;;0.67;;
12110;SDS011;6119;52.372;8.990;2023-02-25T12:00:44;1.63;;;0.60;;
12110;SDS011;6119;52.372;8.990;2023-02-25T12:07:17;0.50;;;0.50;;
12110;SDS011;6119;52.372;8.990;2023-02-25T12:10:18;1.17;;;0.60;;
12110;SDS011;6119;52.372;8.990;2023-02-25T12:30:42;1.50;;;0.50;;
12110;SDS011;6119;52.372;8.990;2023-02-25T12:37:09;1.20;;;0.20;;
12110;SDS011;6119;52.372;8.990;2023-02-25T12:43:38;0.23;;;0.23;;
12110;SDS011;6119;52.372;8.990;2023-02-25T12:46:46;0.63;;;0.40;;
12110;SDS011;6119;52.372;8.990;2023-02-25T12:53:08;1.17;;;0.33;;
12110;SDS011;6119;52.372;8.990;2023-02-25T12:59:25;1.10;;;0.60;;
12110;SDS011;6119;52.372;8.990;2023-02-25T13:02:34;1.23;;;0.60;;
12110;SDS011;6119;52.372;8.990;2023-02-25T13:05:49;1.30;;;0.40;;
12110;SDS011;6119;52.372;8.990;2023-02-25T13:08:56;0.87;;;0.57;;
12110;SDS011;6119;52.372;8.990;2023-02-25T13:11:55;0.80;;;0.60;;
12110;SDS011;6119;52.372;8.990;2023-02-25T13:14:58;0.63;;;0.53;;
12110;SDS011;6119;52.372;8.990;2023-02-25T13:18:02;0.70;;;0.60;;
12110;SDS011;6119;52.372;8.990;2023-02-25T13:21:15;2.03;;;0.47;;
12110;SDS011;6119;52.372;8.990;2023-02-25T13:24:17;0.67;;;0.67;;
12110;SDS011;6119;52.372;8.990;2023-02-25T13:30:34;3.80;;;0.70;;
12110;SDS011;6119;52.372;8.990;2023-02-25T13:33:31;3.60;;;0.80;;
12110;SDS011;6119;52.372;8.990;2023-02-25T13:36:51;0.93;;;0.30;;
12110;SDS011;6119;52.372;8.990;2023-02-25T13:39:51;1.13;;;0.70;;
12110;SDS011;6119;52.372;8.990;2023-02-25T13:46:13;2.10;;;0.60;;
12110;SDS011;6119;52.372;8.990;2023-02-25T13:49:30;0.83;;;0.43;;
12110;SDS011;6119;52.372;8.990;2023-02-25T13:52:30;2.60;;;0.50;;
12110;SDS011;6119;52.372;8.990;2023-02-25T13:58:35;0.93;;;0.53;;
12110;SDS011;6119;52.372;8.990;2023-02-25T14:01:37;1.47;;;0.70;;
12110;SDS011;6119;52.372;8.990;2023-02-25T14:08:10;0.93;;;0.40;;
12110;SDS011;6119;52.372;8.990;2023-02-25T14:11:09;0.57;;;0.47;;
12110;SDS011;6119;52.372;8.990;2023-02-25T14:14:30;1.10;;;0.60;;
12110;SDS011;6119;52.372;8.990;2023-02-25T14:20:36;1.33;;;0.73;;
12110;SDS011;6119;52.372;8.990;2023-02-25T14:23:38;1.27;;;0.63;;
12110;SDS011;6119;52.372;8.990;2023-02-25T14:26:33;2.50;;;0.53;;
12110;SDS011;6119;52.372;8.990;2023-02-25T14:29:34;1.03;;;0.50;;
12110;SDS011;6119;52.372;8.990;2023-02-25T14:32:31;0.87;;;0.50;;
12110;SDS011;6119;52.372;8.990;2023-02-25T14:35:35;0.50;;;0.50;;
12110;SDS011;6119;52.372;8.990;2023-02-25T14:38:40;2.22;;;0.93;;
12110;SDS011;6119;52.372;8.990;2023-02-25T14:41:46;0.60;;;0.50;;
12110;SDS011;6119;52.372;8.990;2023-02-25T14:44:44;0.93;;;0.67;;
12110;SDS011;6119;52.372;8.990;2023-02-25T14:47:41;1.07;;;0.77;;
12110;SDS011;6119;52.372;8.990;2023-02-25T14:50:35;5.10;;;0.67;;
12110;SDS011;6119;52.372;8.990;2023-02-25T14:53:34;0.60;;;0.60;;
12110;SDS011;6119;52.372;8.990;2023-02-25T14:57:04;3.27;;;0.83;;
12110;SDS011;6119;52.372;8.990;2023-02-25T15:03:42;1.60;;;0.80;;
12110;SDS011;6119;52.372;8.990;2023-02-25T15:06:55;2.40;;;1.00;;
12110;SDS011;6119;52.372;8.990;2023-02-25T15:13:24;0.70;;;0.70;;
12110;SDS011;6119;52.372;8.990;2023-02-25T15:16:37;2.60;;;0.83;;
12110;SDS011;6119;52.372;8.990;2023-02-25T15:19:54;1.73;;;0.77;;
12110;SDS011;6119;52.372;8.990;2023-02-25T15:23:05;4.63;;;1.03;;
12110;SDS011;6119;52.372;8.990;2023-02-25T15:26:16;2.03;;;0.80;;
12110;SDS011;6119;52.372;8.990;2023-02-25T15:29:10;0.93;;;0.73;;
12110;SDS011;6119;52.372;8.990;2023-02-25T15:32:13;1.03;;;0.87;;
12110;SDS011;6119;52.372;8.990;2023-02-25T15:35:19;1.77;;;0.83;;
12110;SDS011;6119;52.372;8.990;2023-02-25T15:38:08;0.47;;;0.47;;
12110;SDS011;6119;52.372;8.990;2023-02-25T15:40:59;1.20;;;0.60;;
12110;SDS011;6119;52.372;8.990;2023-02-25T15:43:46;1.00;;;0.80;;
12110;SDS011;6119;52.372;8.990;2023-02-25T15:46:37;1.90;;;0.80;;
12110;SDS011;6119;52.372;8.990;2023-02-25T15:49:29;2.50;;;0.63;;
12110;SDS011;6119;52.372;8.990;2023-02-25T15:55:36;3.03;;;1.00;;
12110;SDS011;6119;52.372;8.990;2023-02-25T15:58:40;2.00;;;0.80;;
12110;SDS011;6119;52.372;8.990;2023-02-25T16:01:39;2.43;;;0.83;;
12110;SDS011;6119;52.372;8.990;2023-02-25T16:04:43;1.87;;;1.40;;
12110;SDS011;6119;52.372;8.990;2023-02-25T16:07:33;2.30;;;1.30;;
12110;SDS011;6119;52.372;8.990;2023-02-25T16:10:24;1.67;;;1.03;;
12110;SDS011;6119;52.372;8.990;2023-02-25T16:13:17;2.87;;;1.03;;
12110;SDS011;6119;52.372;8.990;2023-02-25T16:16:10;0.93;;;0.77;;
12110;SDS011;6119;52.372;8.990;2023-02-25T16:19:00;1.88;;;0.98;;
12110;SDS011;6119;52.372;8.990;2023-02-25T16:21:53;2.67;;;0.90;;
12110;SDS011;6119;52.372;8.990;2023-02-25T16:24:44;2.97;;;0.97;;
12110;SDS011;6119;52.372;8.990;2023-02-25T16:27:41;1.43;;;0.97;;
12110;SDS011;6119;52.372;8.990;2023-02-25T16:30:37;0.97;;;0.87;;
12110;SDS011;6119;52.372;8.990;2023-02-25T16:33:29;4.30;;;1.20;;
12110;SDS011;6119;52.372;8.990;2023-02-25T16:36:26;2.43;;;0.90;;
12110;SDS011;6119;52.372;8.990;2023-02-25T16:39:21;2.10;;;0.93;;
12110;SDS011;6119;52.372;8.990;2023-02-25T16:42:09;1.10;;;1.00;;
12110;SDS011;6119;52.372;8.990;2023-02-25T16:44:58;3.33;;;1.03;;
12110;SDS011;6119;52.372;8.990;2023-02-25T16:47:46;3.20;;;0.80;;
12110;SDS011;6119;52.372;8.990;2023-02-25T16:50:40;5.00;;;1.03;;
12110;SDS011;6119;52.372;8.990;2023-02-25T16:53:31;1.13;;;1.00;;
12110;SDS011;6119;52.372;8.990;2023-02-25T16:56:19;2.67;;;1.00;;
12110;SDS011;6119;52.372;8.990;2023-02-25T16:59:14;1.33;;;1.23;;
12110;SDS011;6119;52.372;8.990;2023-02-25T17:02:08;4.23;;;1.50;;
12110;SDS011;6119;52.372;8.990;2023-02-25T17:05:09;1.50;;;0.90;;
12110;SDS011;6119;52.372;8.990;2023-02-25T17:08:12;3.00;;;1.00;;
12110;SDS011;6119;52.372;8.990;2023-02-25T17:11:01;2.50;;;1.10;;
12110;SDS011;6119;52.372;8.990;2023-02-25T17:13:53;5.53;;;0.90;;
12110;SDS011;6119;52.372;8.990;2023-02-25T17:16:41;3.57;;;1.00;;
12110;SDS011;6119;52.372;8.990;2023-02-25T17:19:28;1.43;;;1.10;;
12110;SDS011;6119;52.372;8.990;2023-02-25T17:22:17;2.47;;;0.90;;
12110;SDS011;6119;52.372;8.990;2023-02-25T17:25:08;2.00;;;0.90;;
12110;SDS011;6119;52.372;8.990;2023-02-25T17:27:59;3.17;;;1.10;;
12110;SDS011;6119;52.372;8.990;2023-02-25T17:30:48;3.53;;;1.10;;
12110;SDS011;6119;52.372;8.990;2023-02-25T17:33:36;1.23;;;0.97;;
12110;SDS011;6119;52.372;8.990;2023-02-25T17:36:33;2.10;;;1.27;;
12110;SDS011;6119;52.372;8.990;2023-02-25T17:39:23;4.67;;;1.17;;
12110;SDS011;6119;52.372;8.990;2023-02-25T17:42:26;3.73;;;1.30;;
12110;SDS011;6119;52.372;8.990;2023-02-25T17:48:27;4.77;;;1.30;;
12110;SDS011;6119;52.372;8.990;2023-02-25T17:51:16;5.00;;;1.60;;
12110;SDS011;6119;52.372;8.990;2023-02-25T17:54:04;3.73;;;2.13;;
12110;SDS011;6119;52.372;8.990;2023-02-25T17:56:56;5.00;;;2.47;;
12110;SDS011;6119;52.372;8.990;2023-02-25T17:59:46;5.87;;;3.40;;
12110;SDS011;6119;52.372;8.990;2023-02-25T18:02:39;15.90;;;7.27;;
12110;SDS011;6119;52.372;8.990;2023-02-25T18:05:29;24.40;;;11.87;;
12110;SDS011;6119;52.372;8.990;2023-02-25T18:08:16;19.13;;;10.53;;
12110;SDS011;6119;52.372;8.990;2023-02-25T18:11:20;24.70;;;10.93;;
12110;SDS011;6119;52.372;8.990;2023-02-25T18:14:20;17.33;;;6.87;;
12110;SDS011;6119;52.372;8.990;2023-02-25T18:17:11;20.70;;;10.63;;
12110;SDS011;6119;52.372;8.990;2023-02-25T18:20:06;22.87;;;10.53;;
12110;SDS011;6119;52.372;8.990;2023-02-25T18:23:17;16.87;;;9.00;;
12110;SDS011;6119;52.372;8.990;2023-02-25T18:26:09;13.50;;;6.87;;
12110;SDS011;6119;52.372;8.990;2023-02-25T18:28:58;8.20;;;4.87;;
12110;SDS011;6119;52.372;8.990;2023-02-25T18:31:45;7.53;;;4.13;;
12110;SDS011;6119;52.372;8.990;2023-02-25T18:34:31;12.40;;;7.60;;
12110;SDS011;6119;52.372;8.990;2023-02-25T18:37:18;8.93;;;5.50;;
12110;SDS011;6119;52.372;8.990;2023-02-25T18:40:09;5.50;;;4.10;;
12110;SDS011;6119;52.372;8.990;2023-02-25T18:43:00;8.33;;;3.20;;